Time;durP1;ratioP1;P1;durP2;ratioP2;P2;SDS_P1;SDS_P2;PMS_P1;PMS_P2;Temp;Humidity;BMP_temperature;BMP_pressure;BME280_temperature;BME280_humidity;BME280_pressure;Samples;Min_cycle;Max_cycle;Signal;HPM_P1;HPM_P2
2021/03/21 00:02:25;;;;;;;;;;;;;;;10.68;42.53;101699.88;5012828;28;6836;-76
2021/03/21 00:04:50;;;;;;;;;;;;;;;10.64;42.78;101699.75;4993175;28;7522;-76
2021/03/21 00:07:16;;;;;;;;;;;;;;;10.64;42.77;101691.97;5011398;28;6787;-76
2021/03/21 00:09:41;;;;;;;;;;;;;;;10.64;42.64;101684.19;4998210;28;7385;-77
2021/03/21 00:12:08;;;;;;;;;;;;;;;10.57;42.57;101694.25;5013708;28;6954;-76
2021/03/21 00:14:33;;;;;;;;;;;;;;;10.58;43.17;101680.44;5014377;28;8685;-76
2021/03/21 00:16:59;;;;;;;;;;;;;;;10.53;43.40;101682.00;4993003;28;7274;-76
2021/03/21 00:19:24;;;;;;;;;;;;;;;10.53;44.05;101682.88;5017965;28;7265;-76
2021/03/21 00:21:50;;;;;;;;;;;;;;;10.52;43.59;101682.81;4995146;28;8609;-76
2021/03/21 00:24:16;;;;;;;;;;;;;;;10.50;43.37;101685.34;4995781;28;7226;-77
2021/03/21 00:26:41;;;;;;;;;;;;;;;10.51;43.45;101687.13;5014166;28;7545;-76
2021/03/21 00:29:07;;;;;;;;;;;;;;;10.50;43.85;101690.56;5004804;28;7002;-76
2021/03/21 00:31:32;;;;;;;;;;;;;;;10.51;43.77;101686.25;4997292;28;6983;-76
2021/03/21 00:33:58;;;;;;;;;;;;;;;10.45;44.34;101686.91;4998825;28;8423;-76
2021/03/21 00:36:24;;;;;;;;;;;;;;;10.48;43.85;101691.31;5014754;28;7795;-77
2021/03/21 00:38:52;;;;;;;;;;;;;;;10.44;43.80;101679.06;5012102;28;7333;-76
2021/03/21 00:41:19;;;;;;;;;;;;;;;10.42;43.92;101678.13;4995613;28;7524;-76
2021/03/21 00:43:44;;;;;;;;;;;;;;;10.36;44.45;101678.72;4996148;28;11178;-76
2021/03/21 00:46:10;;;;;;;;;;;;;;;10.38;44.34;101679.69;5013748;28;6785;-76
2021/03/21 00:48:41;;;;;;;;;;;;;;;10.38;44.68;101669.28;4988204;28;8442;-76
2021/03/21 00:51:06;;;;;;;;;;;;;;;10.38;44.85;101668.41;4984835;28;7222;-76
2021/03/21 00:53:32;;;;;;;;;;;;;;;10.41;44.59;101663.31;4998779;28;6788;-76
2021/03/21 00:55:57;;;;;;;;;;;;;;;10.35;44.89;101662.28;4993279;28;7473;-76
2021/03/21 00:58:23;;;;;;;;;;;;;;;10.31;44.46;101664.69;5009061;28;7442;-76
2021/03/21 01:00:53;;;;;;;;;;;;;;;10.32;44.67;101669.06;4975236;28;6806;-76
2021/03/21 01:03:18;;;;;;;;;;;;;;;10.33;45.15;101668.25;4984308;28;11284;-76
2021/03/21 01:05:49;;;;;;;;;;;;;;;10.28;45.28;101668.06;4993569;28;7294;-76
2021/03/21 01:08:17;;;;;;;;;;;;;;;10.27;45.14;101663.69;5011957;28;6881;-76
2021/03/21 01:10:42;;;;;;;;;;;;;;;10.24;45.53;101655.81;5014593;28;9160;-76
2021/03/21 01:13:08;;;;;;;;;;;;;;;10.26;45.66;101671.44;5013115;28;6981;-76
2021/03/21 01:15:33;;;;;;;;;;;;;;;10.24;45.71;101667.91;5014723;28;6787;-76
2021/03/21 01:17:59;;;;;;;;;;;;;;;10.22;45.61;101669.53;5012296;28;6791;-76
2021/03/21 01:20:26;;;;;;;;;;;;;;;10.24;45.46;101663.59;4979862;28;8778;-76
2021/03/21 01:22:51;;;;;;;;;;;;;;;10.23;45.66;101674.78;5003806;28;7582;-77
2021/03/21 01:25:21;;;;;;;;;;;;;;;10.21;45.92;101667.75;4995973;28;7426;-77
2021/03/21 01:27:47;;;;;;;;;;;;;;;10.16;45.83;101662.34;4993284;28;13020;-76
2021/03/21 01:30:13;;;;;;;;;;;;;;;10.15;46.22;101665.78;5010637;28;7051;-76
2021/03/21 01:32:38;;;;;;;;;;;;;;;10.16;45.84;101661.47;4982921;28;7407;-76
2021/03/21 01:35:05;;;;;;;;;;;;;;;10.18;45.87;101657.22;5016741;28;6879;-76
2021/03/21 01:37:31;;;;;;;;;;;;;;;10.15;46.46;101654.50;5004151;28;8613;-76
2021/03/21 01:39:56;;;;;;;;;;;;;;;10.14;46.40;101644.94;4993045;28;7869;-76
2021/03/21 01:42:22;;;;;;;;;;;;;;;10.12;46.21;101644.00;5017922;28;6895;-76
2021/03/21 01:44:47;;;;;;;;;;;;;;;10.09;46.71;101638.69;5001770;28;8160;-76
2021/03/21 01:47:16;;;;;;;;;;;;;;;10.11;46.51;101631.84;5016098;28;6817;-76
2021/03/21 01:49:43;;;;;;;;;;;;;;;10.08;46.95;101632.63;5003047;28;6803;-77
2021/03/21 01:52:18;;;;;;;;;;;;;;;10.09;46.63;101624.00;4993064;28;7182;-76
2021/03/21 01:54:43;;;;;;;;;;;;;;;10.07;46.75;101618.75;5005599;28;6816;-75
2021/03/21 01:57:09;;;;;;;;;;;;;;;10.04;47.00;101620.38;5010016;28;6908;-75
2021/03/21 01:59:36;;;;;;;;;;;;;;;10.01;47.75;101609.84;4986978;28;7123;-77
2021/03/21 02:02:02;;;;;;;;;;;;;;;10.03;47.22;101598.72;5003480;28;6950;-76
2021/03/21 02:04:28;;;;;;;;;;;;;;;10.00;47.43;101598.56;5001235;28;6813;-76
2021/03/21 02:07:08;;;;;;;;;;;;;;;9.98;47.52;101600.22;5007447;28;8035;-76
2021/03/21 02:09:38;;;;;;;;;;;;;;;9.96;47.86;101590.63;5017818;28;7692;-76
2021/03/21 02:12:06;;;;;;;;;;;;;;;9.98;47.61;101582.06;4989757;28;7476;-75
2021/03/21 02:14:53;;;;;;;;;;;;;;;9.97;48.04;101572.50;5018631;28;8564;-77
2021/03/21 02:17:23;;;;;;;;;;;;;;;9.93;48.13;101570.63;4997831;28;12856;-76
2021/03/21 02:20:04;;;;;;;;;;;;;;;9.91;48.37;101566.22;5004451;28;12229;-76
2021/03/21 02:22:32;;;;;;;;;;;;;;;9.87;49.01;101564.31;5007763;28;11075;-76
2021/03/21 02:25:15;;;;;;;;;;;;;;;9.87;48.60;101565.22;5004632;28;7162;-76
2021/03/21 02:27:40;;;;;;;;;;;;;;;9.84;48.37;101569.41;5004511;28;6883;-76
2021/03/21 02:30:12;;;;;;;;;;;;;;;9.80;48.46;101564.88;5014494;28;7447;-77
2021/03/21 02:32:46;;;;;;;;;;;;;;;9.83;48.76;101550.34;4976415;28;6804;-77
2021/03/21 02:35:37;;;;;;;;;;;;;;;9.81;48.73;101562.38;5011505;28;8368;-76
2021/03/21 02:38:13;;;;;;;;;;;;;;;9.75;49.18;101559.53;5004845;28;12588;-76
2021/03/21 02:40:43;;;;;;;;;;;;;;;9.75;49.50;101559.53;5005428;28;6800;-76
2021/03/21 02:43:09;;;;;;;;;;;;;;;9.75;49.17;101549.16;4984239;28;7838;-76
2021/03/21 02:45:36;;;;;;;;;;;;;;;9.76;49.03;101550.91;5015207;28;7453;-76
2021/03/21 02:48:10;;;;;;;;;;;;;;;9.73;48.93;101548.22;4995895;28;6975;-77
2021/03/21 02:50:39;;;;;;;;;;;;;;;9.73;48.88;101546.50;4997406;28;7247;-77
2021/03/21 02:53:20;;;;;;;;;;;;;;;9.70;49.20;101528.22;5001934;28;7029;-76
2021/03/21 02:55:48;;;;;;;;;;;;;;;9.70;49.35;101509.19;5015921;28;7408;-76
2021/03/21 02:58:15;;;;;;;;;;;;;;;9.68;49.38;101505.66;4984689;28;7421;-76
2021/03/21 03:00:51;;;;;;;;;;;;;;;9.64;49.64;101509.84;5001561;28;7198;-77
2021/03/21 03:03:16;;;;;;;;;;;;;;;9.62;50.08;101506.31;4975797;28;8403;-76
2021/03/21 03:05:44;;;;;;;;;;;;;;;9.64;49.78;101515.03;5002708;28;6907;-76
2021/03/21 03:08:36;;;;;;;;;;;;;;;9.62;49.77;101502.84;4975837;28;8825;-76
2021/03/21 03:11:13;;;;;;;;;;;;;;;9.59;50.38;101494.91;5006284;28;10974;-76
2021/03/21 03:13:43;;;;;;;;;;;;;;;9.58;50.21;101509.59;4987430;28;8523;-76
2021/03/21 03:16:34;;;;;;;;;;;;;;;9.54;50.55;101501.63;4975119;28;7151;-77
2021/03/21 03:19:38;;;;;;;;;;;;;;;9.51;50.56;101512.78;4995728;28;11259;-76
2021/03/21 03:22:13;;;;;;;;;;;;;;;9.51;50.94;101512.78;5014178;28;11111;-76
2021/03/21 03:24:57;;;;;;;;;;;;;;;9.55;50.44;101521.56;5004162;28;6800;-76
2021/03/21 03:27:34;;;;;;;;;;;;;;;9.51;50.53;101512.78;5005733;28;11222;-76
2021/03/21 03:30:11;;;;;;;;;;;;;;;9.51;50.63;101511.88;5000016;28;11176;-76
2021/03/21 03:32:37;;;;;;;;;;;;;;;9.49;50.96;101500.56;5003999;28;7289;-76
2021/03/21 03:35:04;;;;;;;;;;;;;;;9.47;51.02;101477.19;5015987;28;6874;-75
2021/03/21 03:37:30;;;;;;;;;;;;;;;9.47;50.67;101479.78;4970494;28;8524;-76
2021/03/21 03:39:55;;;;;;;;;;;;;;;9.47;50.70;101473.72;5007309;28;6806;-76
2021/03/21 03:42:47;;;;;;;;;;;;;;;9.44;51.43;101480.53;5011724;28;6803;-75
2021/03/21 03:45:36;;;;;;;;;;;;;;;9.43;50.78;101477.91;4998423;28;11327;-76
2021/03/21 03:48:18;;;;;;;;;;;;;;;9.38;51.54;101488.06;5001412;28;11311;-76
2021/03/21 03:50:56;;;;;;;;;;;;;;;9.38;51.25;101498.44;5018555;28;7417;-77
2021/03/21 03:53:34;;;;;;;;;;;;;;;9.39;51.75;101507.09;4987855;28;12727;-76
2021/03/21 03:56:03;;;;;;;;;;;;;;;9.34;51.81;101498.25;4997796;28;12827;-76
2021/03/21 03:58:35;;;;;;;;;;;;;;;9.36;51.46;101502.66;5018265;28;6819;-76
2021/03/21 04:01:10;;;;;;;;;;;;;;;9.34;51.66;101506.03;5016159;28;6951;-76
2021/03/21 04:03:57;;;;;;;;;;;;;;;9.34;51.57;101500.84;4987330;28;7169;-77
2021/03/21 04:06:33;;;;;;;;;;;;;;;9.34;51.60;101501.72;5006759;28;11311;-76
2021/03/21 04:09:21;;;;;;;;;;;;;;;9.33;51.44;101496.47;4989271;28;10877;-76
2021/03/21 04:11:52;;;;;;;;;;;;;;;9.30;51.78;101488.59;5002714;28;7230;-76
2021/03/21 04:14:47;;;;;;;;;;;;;;;9.28;52.14;101490.25;5013243;28;7619;-76
2021/03/21 04:17:23;;;;;;;;;;;;;;;9.27;52.19;101486.75;5005292;28;11588;-76
2021/03/21 04:20:30;;;;;;;;;;;;;;;9.26;52.14;101489.28;5014683;28;7191;-76
2021/03/21 04:23:00;;;;;;;;;;;;;;;9.20;52.63;101489.91;5014542;28;11124;-76
2021/03/21 04:25:28;;;;;;;;;;;;;;;9.21;52.35;101477.84;4986258;28;11154;-77
2021/03/21 04:28:03;;;;;;;;;;;;;;;9.15;53.52;101492.31;5014234;28;11078;-76
2021/03/21 04:30:31;;;;;;;;;;;;;;;9.16;52.62;101482.84;5006773;28;11426;-77
2021/03/21 04:32:57;;;;;;;;;;;;;;;9.18;52.63;101490.66;4985463;28;7397;-75
2021/03/21 04:35:33;;;;;;;;;;;;;;;9.16;52.81;101495.78;4984654;28;6847;-76
2021/03/21 04:38:00;;;;;;;;;;;;;;;9.18;52.83;101501.03;5000665;28;10973;-75
2021/03/21 04:40:27;;;;;;;;;;;;;;;9.15;52.82;101486.25;4988983;28;8394;-76
2021/03/21 04:42:58;;;;;;;;;;;;;;;9.15;52.97;101491.44;5002037;28;12910;-76
2021/03/21 04:45:33;;;;;;;;;;;;;;;9.12;53.04;101486.13;4989330;28;11439;-76
2021/03/21 04:48:06;;;;;;;;;;;;;;;9.12;53.11;101484.44;5001918;28;11577;-76
2021/03/21 04:50:32;;;;;;;;;;;;;;;9.11;53.09;101485.25;5004326;28;7417;-76
2021/03/21 04:53:15;;;;;;;;;;;;;;;9.11;52.96;101482.66;4986666;28;6807;-76
2021/03/21 04:55:42;;;;;;;;;;;;;;;9.08;53.66;101484.25;4994188;28;7119;-76
2021/03/21 04:58:26;;;;;;;;;;;;;;;9.00;53.68;101483.03;4989601;28;7031;-76
2021/03/21 05:00:51;;;;;;;;;;;;;;;9.01;53.91;101482.19;4997193;28;8055;-77
2021/03/21 05:03:20;;;;;;;;;;;;;;;9.01;53.72;101477.03;5012830;28;7471;-76
2021/03/21 05:05:49;;;;;;;;;;;;;;;8.97;54.12;101475.13;5004902;28;7607;-76
2021/03/21 05:08:22;;;;;;;;;;;;;;;8.99;54.19;101468.31;4988904;28;6823;-77
2021/03/21 05:10:50;;;;;;;;;;;;;;;8.95;54.05;101471.59;5021327;28;6851;-77
2021/03/21 05:13:20;;;;;;;;;;;;;;;9.00;53.65;101477.84;4992327;28;7437;-76
2021/03/21 05:15:58;;;;;;;;;;;;;;;8.94;54.19;101468.13;5005885;28;6808;-77
2021/03/21 05:18:45;;;;;;;;;;;;;;;8.94;54.30;101470.72;5021989;28;11184;-76
2021/03/21 05:21:18;;;;;;;;;;;;;;;8.93;54.10;101478.44;5006475;28;12336;-77
2021/03/21 05:23:57;;;;;;;;;;;;;;;8.94;54.07;101480.19;5004383;28;6825;-76
2021/03/21 05:26:49;;;;;;;;;;;;;;;8.93;54.14;101473.25;4992541;28;7138;-76
2021/03/21 05:29:52;;;;;;;;;;;;;;;8.95;54.06;101471.59;5019645;28;12155;-76
2021/03/21 05:32:18;;;;;;;;;;;;;;;8.90;54.47;101471.41;5015021;28;12734;-76
2021/03/21 05:34:43;;;;;;;;;;;;;;;8.91;54.34;101482.66;4993208;28;7483;-76
2021/03/21 05:37:29;;;;;;;;;;;;;;;8.88;54.39;101480.84;5022231;28;7523;-76
2021/03/21 05:40:01;;;;;;;;;;;;;;;8.90;54.07;101473.13;5019613;28;12245;-76
2021/03/21 05:43:00;;;;;;;;;;;;;;;8.91;54.27;101480.06;5002640;28;14055;-76
2021/03/21 05:45:53;;;;;;;;;;;;;;;8.91;54.33;101483.53;5021492;28;11336;-76
2021/03/21 05:48:46;;;;;;;;;;;;;;;8.91;54.62;101475.78;5015691;28;13149;-76
2021/03/21 05:51:20;;;;;;;;;;;;;;;8.87;54.86;101471.28;5020329;28;13087;-77
2021/03/21 05:54:03;;;;;;;;;;;;;;;8.86;54.96;101468.66;5017465;28;7039;-76
2021/03/21 05:57:05;;;;;;;;;;;;;;;8.86;54.63;101472.13;5017242;28;10992;-76
2021/03/21 05:59:46;;;;;;;;;;;;;;;8.85;55.16;101467.75;5015782;28;11330;-77
2021/03/21 06:02:34;;;;;;;;;;;;;;;8.82;54.67;101462.47;5015867;28;7119;-76
2021/03/21 06:05:24;;;;;;;;;;;;;;;8.86;54.70;101455.69;4991376;28;11404;-76
2021/03/21 06:08:08;;;;;;;;;;;;;;;8.85;54.91;101449.63;5015544;28;6812;-76
2021/03/21 06:10:46;;;;;;;;;;;;;;;8.86;55.14;101450.50;5005818;28;13001;-76
2021/03/21 06:13:30;;;;;;;;;;;;;;;8.88;55.10;101451.47;5016597;28;7574;-76
2021/03/21 06:16:37;;;;;;;;;;;;;;;8.86;54.88;101442.75;4988489;28;12761;-76
2021/03/21 06:19:30;;;;;;;;;;;;;;;8.82;55.28;101429.66;4948843;28;11172;-76
2021/03/21 06:22:11;;;;;;;;;;;;;;;8.82;55.28;101423.59;4997491;28;12885;-76
2021/03/21 06:24:44;;;;;;;;;;;;;;;8.86;55.52;101422.91;4991088;28;11366;-77
2021/03/21 06:27:51;;;;;;;;;;;;;;;8.87;55.50;101440.22;5017184;28;7119;-76
2021/03/21 06:30:34;;;;;;;;;;;;;;;8.86;55.33;101450.50;4917575;29;11238;-76
2021/03/21 06:33:23;;;;;;;;;;;;;;;8.88;55.32;101446.28;5007833;28;11080;-76
2021/03/21 06:36:00;;;;;;;;;;;;;;;8.86;55.40;101434.97;5017627;28;11498;-77
2021/03/21 06:38:45;;;;;;;;;;;;;;;8.88;55.99;101441.97;5017864;28;11517;-76
2021/03/21 06:41:47;;;;;;;;;;;;;;;8.86;55.57;101440.16;5017411;28;11119;-76
2021/03/21 06:44:25;;;;;;;;;;;;;;;8.82;55.60;101439.16;4998859;28;12375;-76
2021/03/21 06:46:56;;;;;;;;;;;;;;;8.81;55.73;101443.44;5000699;28;7131;-76
2021/03/21 06:49:45;;;;;;;;;;;;;;;8.83;55.70;101446.97;5016186;28;8563;-76
2021/03/21 06:52:34;;;;;;;;;;;;;;;8.84;55.56;101453.03;4999257;28;11493;-76
2021/03/21 06:55:04;;;;;;;;;;;;;;;8.87;55.61;101447.97;4999561;28;11393;-76
2021/03/21 06:58:08;;;;;;;;;;;;;;;8.87;55.77;101447.09;5002060;28;12742;-76
2021/03/21 07:00:56;;;;;;;;;;;;;;;8.83;55.72;101452.16;5014850;28;11966;-76
2021/03/21 07:03:53;;;;;;;;;;;;;;;8.86;55.39;101435.84;5015489;28;7706;-76
2021/03/21 07:06:46;;;;;;;;;;;;;;;8.90;56.00;101444.63;5010406;28;12954;-76
2021/03/21 07:09:45;;;;;;;;;;;;;;;8.90;55.93;101457.59;5005816;28;11303;-76
2021/03/21 07:12:13;;;;;;;;;;;;;;;8.94;55.50;101455.19;5016064;28;13053;-75
2021/03/21 07:14:48;;;;;;;;;;;;;;;8.92;55.74;101455.94;5015902;28;6807;-79
2021/03/21 07:17:45;;;;;;;;;;;;;;;8.98;55.84;101461.34;5015992;28;7290;-76
2021/03/21 07:20:32;;;;;;;;;;;;;;;9.08;55.66;101463.50;5013593;28;11132;-75
2021/03/21 07:23:35;;;;;;;;;;;;;;;9.15;55.51;101465.53;5015111;28;11711;-76
2021/03/21 07:26:15;;;;;;;;;;;;;;;9.23;55.16;101466.72;5008832;28;11140;-76
2021/03/21 07:28:43;;;;;;;;;;;;;;;9.24;55.28;101463.31;5009283;28;11138;-76
2021/03/21 07:31:19;;;;;;;;;;;;;;;9.31;54.60;101467.91;5017403;28;8769;-75
2021/03/21 07:33:44;;;;;;;;;;;;;;;9.30;55.20;101471.31;5013921;28;8172;-75
2021/03/21 07:36:34;;;;;;;;;;;;;;;9.36;54.83;101460.31;5016725;28;7303;-75
2021/03/21 07:39:22;;;;;;;;;;;;;;;9.42;54.76;101460.56;5016280;28;11166;-71
2021/03/21 07:41:59;;;;;;;;;;;;;;;9.44;54.89;101465.00;5014494;28;12766;-74
2021/03/21 07:44:39;;;;;;;;;;;;;;;9.50;54.55;101463.44;5017148;28;7881;-71
2021/03/21 07:47:33;;;;;;;;;;;;;;;9.56;54.88;101474.06;5013529;28;11333;-75
2021/03/21 07:50:13;;;;;;;;;;;;;;;9.60;54.71;101470.75;5016544;28;11032;-78
2021/03/21 07:52:51;;;;;;;;;;;;;;;9.70;54.41;101468.56;5018819;28;11659;-77
2021/03/21 07:55:34;;;;;;;;;;;;;;;9.85;53.66;101476.06;5002641;28;7566;-78
2021/03/21 07:58:11;;;;;;;;;;;;;;;10.02;53.33;101482.78;5001909;28;11230;-79
2021/03/21 08:00:37;;;;;;;;;;;;;;;10.16;53.90;101475.47;4984558;28;12091;-77
2021/03/21 08:03:12;;;;;;;;;;;;;;;10.20;54.12;101492.03;5019850;28;7201;-79
2021/03/21 08:05:37;;;;;;;;;;;;;;;10.26;52.95;101498.38;5016536;28;10968;-75
2021/03/21 08:08:03;;;;;;;;;;;;;;;10.26;53.48;101500.97;4983785;28;8430;-79
2021/03/21 08:10:30;;;;;;;;;;;;;;;10.30;53.26;101499.38;5000611;28;7214;-78
2021/03/21 08:13:01;;;;;;;;;;;;;;;10.32;53.53;101498.59;4995201;28;6812;-77
2021/03/21 08:15:29;;;;;;;;;;;;;;;10.38;53.11;101504.84;4973572;28;7627;-75
2021/03/21 08:18:00;;;;;;;;;;;;;;;10.53;53.07;101495.88;4999323;28;6950;-75
2021/03/21 08:20:33;;;;;;;;;;;;;;;10.54;52.68;101497.66;5003312;28;7667;-76
2021/03/21 08:23:22;;;;;;;;;;;;;;;10.52;53.35;101488.91;5006687;28;11190;-75
2021/03/21 08:25:50;;;;;;;;;;;;;;;10.43;53.24;101488.63;4993384;28;11136;-75
2021/03/21 08:28:16;;;;;;;;;;;;;;;10.45;53.15;101486.94;4992532;28;7222;-74
2021/03/21 08:30:53;;;;;;;;;;;;;;;10.66;52.98;101485.09;5001078;28;8459;-74
2021/03/21 08:33:28;;;;;;;;;;;;;;;10.88;52.42;101480.63;5001255;28;6819;-73
2021/03/21 08:36:13;;;;;;;;;;;;;;;11.01;52.25;101482.78;5015039;28;7219;-74
2021/03/21 08:38:38;;;;;;;;;;;;;;;11.06;51.90;101493.34;5015980;28;11132;-74
2021/03/21 08:41:04;;;;;;;;;;;;;;;11.12;52.26;101489.22;4984202;28;7451;-74
2021/03/21 08:43:31;;;;;;;;;;;;;;;11.19;51.35;101487.72;4981215;28;6788;-75
2021/03/21 08:46:00;;;;;;;;;;;;;;;11.18;51.51;101488.53;4989386;28;6939;-77
2021/03/21 08:48:32;;;;;;;;;;;;;;;11.20;51.85;101498.16;4997014;28;8007;-76
2021/03/21 08:51:03;;;;;;;;;;;;;;;11.28;51.65;101495.81;5005691;28;7266;-77
2021/03/21 08:53:55;;;;;;;;;;;;;;;11.33;51.51;101495.97;4998846;28;7515;-77
2021/03/21 08:56:28;;;;;;;;;;;;;;;11.45;51.26;101498.97;4998934;28;11222;-76
2021/03/21 08:59:19;;;;;;;;;;;;;;;11.53;51.37;101502.69;5001846;28;7840;-78
2021/03/21 09:01:58;;;;;;;;;;;;;;;11.72;50.65;101481.59;4995766;28;11130;-78
2021/03/21 09:04:25;;;;;;;;;;;;;;;11.73;50.98;101483.34;5001114;28;7178;-78
2021/03/21 09:06:51;;;;;;;;;;;;;;;11.81;50.40;101473.19;4985368;28;6808;-75
2021/03/21 09:09:28;;;;;;;;;;;;;;;11.68;50.79;101473.66;5011661;28;6937;-78
2021/03/21 09:11:57;;;;;;;;;;;;;;;11.49;51.74;101487.81;4989131;28;6819;-75
2021/03/21 09:14:32;;;;;;;;;;;;;;;11.55;51.91;101507.09;5016444;28;6808;-76
2021/03/21 09:16:59;;;;;;;;;;;;;;;11.85;50.68;101503.72;4982413;28;6887;-73
2021/03/21 09:19:27;;;;;;;;;;;;;;;12.18;50.06;101503.78;5012723;28;7122;-73
2021/03/21 09:21:53;;;;;;;;;;;;;;;12.28;49.75;101500.63;4999887;28;7428;-75
2021/03/21 09:24:24;;;;;;;;;;;;;;;12.31;50.03;101503.31;4996707;28;6826;-74
2021/03/21 09:26:50;;;;;;;;;;;;;;;12.40;49.95;101495.75;4999998;28;7291;-71
2021/03/21 09:29:21;;;;;;;;;;;;;;;12.55;49.32;101489.19;4997944;28;7274;-71
2021/03/21 09:31:48;;;;;;;;;;;;;;;12.68;49.25;101491.28;5004189;28;7483;-72
2021/03/21 09:34:19;;;;;;;;;;;;;;;12.65;49.23;101491.22;5016342;28;7178;-71
2021/03/21 09:37:06;;;;;;;;;;;;;;;12.78;49.19;101481.13;4989148;28;7190;-72
2021/03/21 09:39:35;;;;;;;;;;;;;;;12.57;49.64;101477.09;4987416;28;11341;-72
2021/03/21 09:42:02;;;;;;;;;;;;;;;12.41;50.21;101476.69;4985855;28;7445;-72
2021/03/21 09:44:27;;;;;;;;;;;;;;;12.42;49.82;101478.47;4985550;28;7055;-73
2021/03/21 09:47:02;;;;;;;;;;;;;;;12.35;50.39;101486.91;5012291;28;7519;-72
2021/03/21 09:49:45;;;;;;;;;;;;;;;12.36;50.25;101485.19;5001507;28;7941;-73
2021/03/21 09:52:14;;;;;;;;;;;;;;;12.27;50.71;101485.84;5012770;28;11216;-72
2021/03/21 09:54:54;;;;;;;;;;;;;;;13.33;55.52;101479.94;5011906;28;6796;-75
2021/03/21 09:57:46;;;;;;;;;;;;;;;14.36;55.41;101472.56;5018739;28;7180;-75
2021/03/21 10:00:14;;;;;;;;;;;;;;;14.19;55.97;101467.00;5005230;28;11388;-73
2021/03/21 10:02:51;;;;;;;;;;;;;;;14.26;55.44;101474.13;5019504;28;7263;-73
2021/03/21 10:05:33;;;;;;;;;;;;;;;14.43;55.02;101474.50;4993203;28;7202;-72
2021/03/21 10:07:59;;;;;;;;;;;;;;;14.43;54.68;101482.34;5007378;28;6868;-72
2021/03/21 10:10:37;;;;;;;;;;;;;;;14.36;54.65;101484.75;5017438;28;7289;-73
2021/03/21 10:13:02;;;;;;;;;;;;;;;14.42;55.04;101487.50;5003728;28;8469;-73
2021/03/21 10:15:28;;;;;;;;;;;;;;;14.31;54.89;101490.78;5015970;28;6994;-72
2021/03/21 10:17:58;;;;;;;;;;;;;;;14.08;55.27;101492.03;5000192;28;6800;-73
2021/03/21 10:20:53;;;;;;;;;;;;;;;13.86;55.64;101495.06;4989633;28;8164;-74
2021/03/21 10:23:19;;;;;;;;;;;;;;;13.81;56.20;101496.66;5017414;28;11106;-73
2021/03/21 10:25:44;;;;;;;;;;;;;;;13.85;56.01;101490.69;5010224;28;6847;-73
2021/03/21 10:28:35;;;;;;;;;;;;;;;13.90;54.67;101496.88;5004193;28;7458;-72
2021/03/21 10:31:22;;;;;;;;;;;;;;;14.14;54.09;101489.53;4997585;28;7468;-74
2021/03/21 10:33:49;;;;;;;;;;;;;;;14.54;53.68;101504.31;5018475;28;11129;-75
2021/03/21 10:36:43;;;;;;;;;;;;;;;14.95;51.92;101508.53;4987902;28;6898;-72
2021/03/21 10:39:12;;;;;;;;;;;;;;;15.19;51.15;101507.19;5008234;28;11019;-71
2021/03/21 10:41:49;;;;;;;;;;;;;;;15.45;50.06;101507.63;5017100;28;7175;-72
2021/03/21 10:44:15;;;;;;;;;;;;;;;15.70;49.46;101510.66;5003295;28;14002;-72
2021/03/21 10:46:45;;;;;;;;;;;;;;;15.81;49.51;101507.31;4997416;28;7244;-72
2021/03/21 10:49:11;;;;;;;;;;;;;;;15.66;49.08;101511.47;5014194;28;7225;-72
2021/03/21 10:52:13;;;;;;;;;;;;;;;15.45;50.44;101512.00;4998458;28;7081;-72
2021/03/21 10:54:39;;;;;;;;;;;;;;;15.21;50.01;101512.47;4997043;28;12755;-71
2021/03/21 10:57:49;;;;;;;;;;;;;;;15.14;50.48;101524.56;5004034;28;7635;-71
2021/03/21 11:00:18;;;;;;;;;;;;;;;15.19;49.46;101529.88;4947293;28;11134;-72
2021/03/21 11:03:10;;;;;;;;;;;;;;;15.31;49.63;101535.31;4961648;28;7377;-72
2021/03/21 11:05:45;;;;;;;;;;;;;;;15.36;49.38;101532.78;4998333;28;11324;-73
2021/03/21 11:08:13;;;;;;;;;;;;;;;15.43;48.83;101532.03;5015659;28;11147;-71
2021/03/21 11:10:43;;;;;;;;;;;;;;;15.53;48.25;101534.81;5016200;28;7211;-71
2021/03/21 11:13:11;;;;;;;;;;;;;;;15.53;48.53;101547.88;5003994;28;7228;-72
2021/03/21 11:15:37;;;;;;;;;;;;;;;15.52;48.06;101553.97;5019633;28;13059;-71
2021/03/21 11:18:14;;;;;;;;;;;;;;;15.63;48.07;101537.63;5016146;28;6920;-71
2021/03/21 11:20:39;;;;;;;;;;;;;;;15.82;47.05;101535.28;5017095;28;11005;-72
2021/03/21 11:23:07;;;;;;;;;;;;;;;16.00;46.37;101533.75;5002146;28;7306;-71
2021/03/21 11:25:38;;;;;;;;;;;;;;;16.06;46.63;101536.47;4998487;28;7371;-70
2021/03/21 11:28:04;;;;;;;;;;;;;;;16.15;46.05;101526.09;4999783;28;7337;-71
2021/03/21 11:30:30;;;;;;;;;;;;;;;16.26;45.74;101521.00;5002624;28;6793;-71
2021/03/21 11:33:16;;;;;;;;;;;;;;;16.42;45.22;101522.97;5015953;28;6783;-71
2021/03/21 11:35:42;;;;;;;;;;;;;;;16.28;45.53;101525.41;5006029;28;11118;-70
2021/03/21 11:38:27;;;;;;;;;;;;;;;16.16;45.26;101521.75;5003178;28;7119;-70
2021/03/21 11:40:54;;;;;;;;;;;;;;;16.18;45.59;101533.13;5003397;28;11086;-70
2021/03/21 11:43:19;;;;;;;;;;;;;;;16.31;44.99;101514.94;5013222;28;7338;-70
2021/03/21 11:45:45;;;;;;;;;;;;;;;16.21;45.08;101512.19;5006594;28;7375;-71
2021/03/21 11:48:13;;;;;;;;;;;;;;;16.16;45.24;101512.13;4979875;28;7049;-71
2021/03/21 11:50:42;;;;;;;;;;;;;;;16.09;45.10;101521.66;4978252;28;11155;-71
2021/03/21 11:53:13;;;;;;;;;;;;;;;15.95;45.90;101524.97;5016283;28;11211;-71
2021/03/21 11:55:40;;;;;;;;;;;;;;;15.80;45.63;101529.13;5003342;28;13085;-71
2021/03/21 11:58:24;;;;;;;;;;;;;;;15.89;45.52;101528.38;4986243;28;7080;-71
2021/03/21 12:01:00;;;;;;;;;;;;;;;16.22;44.75;101529.66;5014847;28;11133;-72
2021/03/21 12:03:26;;;;;;;;;;;;;;;16.61;44.06;101524.88;4996630;28;7257;-71
2021/03/21 12:06:06;;;;;;;;;;;;;;;17.01;43.40;101515.72;5013963;28;6973;-72
2021/03/21 12:08:39;;;;;;;;;;;;;;;17.32;42.50;101495.84;4987582;28;6823;-72
2021/03/21 12:11:19;;;;;;;;;;;;;;;17.37;42.15;101495.88;4990297;28;8025;-72
2021/03/21 12:13:45;;;;;;;;;;;;;;;17.68;41.17;101504.03;5015948;28;10939;-71
2021/03/21 12:16:35;;;;;;;;;;;;;;;17.43;37.48;101500.31;5006371;28;7969;-75
2021/03/21 12:19:01;;;;;;;;;;;;;;;17.43;43.83;101510.81;5015089;28;10987;-71
2021/03/21 12:21:27;;;;;;;;;;;;;;;18.58;44.01;101507.00;5015075;28;7184;-72
2021/03/21 12:23:59;;;;;;;;;;;;;;;18.91;44.39;101504.50;4999427;28;7091;-73
2021/03/21 12:26:31;;;;;;;;;;;;;;;18.45;45.48;101504.38;5014090;28;6820;-72
2021/03/21 12:29:01;;;;;;;;;;;;;;;18.04;46.08;101495.47;5011586;28;7900;-72
2021/03/21 12:31:31;;;;;;;;;;;;;;;17.89;46.05;101502.38;5002343;28;6831;-76
2021/03/21 12:33:57;;;;;;;;;;;;;;;17.76;46.08;101497.91;5002495;28;7665;-76
2021/03/21 12:36:26;;;;;;;;;;;;;;;17.76;45.99;101497.91;4996707;28;7490;-76
2021/03/21 12:38:57;;;;;;;;;;;;;;;17.81;45.57;101503.19;4996052;28;6806;-76
2021/03/21 12:41:38;;;;;;;;;;;;;;;18.04;44.91;101492.84;5002061;28;8779;-75
2021/03/21 12:44:15;;;;;;;;;;;;;;;17.99;44.95;101492.78;4996808;28;7589;-75
2021/03/21 12:46:56;;;;;;;;;;;;;;;17.84;45.27;101493.59;5014477;28;12028;-75
2021/03/21 12:49:49;;;;;;;;;;;;;;;17.70;45.49;101497.91;5006191;28;12280;-74
2021/03/21 12:52:42;;;;;;;;;;;;;;;17.55;45.93;101480.25;4991263;28;11298;-72
2021/03/21 12:55:09;;;;;;;;;;;;;;;17.45;45.79;101482.81;5002181;28;11697;-72
2021/03/21 12:57:34;;;;;;;;;;;;;;;17.45;46.03;101480.19;4985563;28;7147;-74
2021/03/21 13:00:00;;;;;;;;;;;;;;;17.41;45.96;101494.16;5014796;28;7301;-74
2021/03/21 13:02:35;;;;;;;;;;;;;;;17.38;45.98;101491.50;5013015;28;7349;-72
2021/03/21 13:05:06;;;;;;;;;;;;;;;17.47;45.44;101491.59;4986820;28;7913;-72
2021/03/21 13:07:32;;;;;;;;;;;;;;;17.61;43.97;101492.53;4975623;28;7083;-72
2021/03/21 13:09:58;;;;;;;;;;;;;;;18.10;43.71;101483.22;5006361;28;6819;-73
2021/03/21 13:12:23;;;;;;;;;;;;;;;18.06;43.62;101485.81;5000436;28;6820;-74
2021/03/21 13:14:49;;;;;;;;;;;;;;;17.95;43.71;101493.66;4983232;28;6923;-76
2021/03/21 13:17:15;;;;;;;;;;;;;;;17.93;43.77;101483.13;5003567;28;7186;-73
2021/03/21 13:19:41;;;;;;;;;;;;;;;18.10;43.12;101487.59;4967816;28;8324;-74
2021/03/21 13:22:07;;;;;;;;;;;;;;;18.09;42.45;101484.09;5012903;28;7479;-78
2021/03/21 13:24:33;;;;;;;;;;;;;;;18.25;41.76;101477.13;4998511;28;7731;-74
2021/03/21 13:26:58;;;;;;;;;;;;;;;18.29;42.55;101473.63;4996023;28;8531;-74